sensor_id;sensor_type;location;lat;lon;timestamp;pressure;altitude;pressure_sealevel;temperature;humidity
74372;BME280;62885;51.374;6.170;2022-12-18T00:00:43;102583.53;;;-4.15;84.41
74372;BME280;62885;51.374;6.170;2022-12-18T00:03:09;102582.66;;;-4.16;83.60
74372;BME280;62885;51.374;6.170;2022-12-18T00:05:35;102595.88;;;-4.05;84.11
74372;BME280;62885;51.374;6.170;2022-12-18T00:08:00;102584.59;;;-3.99;83.07
74372;BME280;62885;51.374;6.170;2022-12-18T00:10:27;102585.28;;;-4.14;82.79
74372;BME280;62885;51.374;6.170;2022-12-18T00:12:52;102587.81;;;-4.19;83.69
74372;BME280;62885;51.374;6.170;2022-12-18T00:15:18;102598.50;;;-4.03;83.21
74372;BME280;62885;51.374;6.170;2022-12-18T00:17:43;102601.03;;;-4.09;82.76
74372;BME280;62885;51.374;6.170;2022-12-18T00:20:09;102603.44;;;-4.23;82.90
74372;BME280;62885;51.374;6.170;2022-12-18T00:22:34;102608.53;;;-4.31;82.88
74372;BME280;62885;51.374;6.170;2022-12-18T00:25:00;102588.50;;;-4.30;83.26
74372;BME280;62885;51.374;6.170;2022-12-18T00:27:28;102590.16;;;-4.38;83.27
74372;BME280;62885;51.374;6.170;2022-12-18T00:29:53;102587.28;;;-4.53;83.50
74372;BME280;62885;51.374;6.170;2022-12-18T00:32:18;102582.16;;;-4.47;84.11
74372;BME280;62885;51.374;6.170;2022-12-18T00:34:44;102575.19;;;-4.47;83.56
74372;BME280;62885;51.374;6.170;2022-12-18T00:37:09;102585.63;;;-4.50;83.72
74372;BME280;62885;51.374;6.170;2022-12-18T00:39:35;102591.03;;;-4.38;83.54
74372;BME280;62885;51.374;6.170;2022-12-18T00:42:00;102587.41;;;-4.46;83.60
74372;BME280;62885;51.374;6.170;2022-12-18T00:44:44;102575.28;;;-4.41;83.88
74372;BME280;62885;51.374;6.170;2022-12-18T00:47:12;102569.91;;;-4.51;83.23
74372;BME280;62885;51.374;6.170;2022-12-18T00:49:38;102577.81;;;-4.47;83.51
74372;BME280;62885;51.374;6.170;2022-12-18T00:52:03;102580.53;;;-4.39;84.19
74372;BME280;62885;51.374;6.170;2022-12-18T00:54:28;102585.78;;;-4.39;83.37
74372;BME280;62885;51.374;6.170;2022-12-18T00:56:54;102585.91;;;-4.30;82.39
74372;BME280;62885;51.374;6.170;2022-12-18T00:59:20;102578.16;;;-4.24;82.21
74372;BME280;62885;51.374;6.170;2022-12-18T01:01:46;102587.03;;;-4.13;82.31
74372;BME280;62885;51.374;6.170;2022-12-18T01:04:11;102582.34;;;-4.37;82.03
74372;BME280;62885;51.374;6.170;2022-12-18T01:06:37;102576.19;;;-4.39;81.67
74372;BME280;62885;51.374;6.170;2022-12-18T01:09:02;102578.78;;;-4.40;82.42
74372;BME280;62885;51.374;6.170;2022-12-18T01:11:28;102584.88;;;-4.43;82.95
74372;BME280;62885;51.374;6.170;2022-12-18T01:13:54;102587.56;;;-4.37;82.36
74372;BME280;62885;51.374;6.170;2022-12-18T01:16:20;102583.94;;;-4.45;82.81
74372;BME280;62885;51.374;6.170;2022-12-18T01:18:45;102561.25;;;-4.47;82.64
74372;BME280;62885;51.374;6.170;2022-12-18T01:21:16;102576.84;;;-4.52;83.16
74372;BME280;62885;51.374;6.170;2022-12-18T01:23:45;102588.25;;;-4.47;83.05
74372;BME280;62885;51.374;6.170;2022-12-18T01:26:13;102586.50;;;-4.48;82.05
74372;BME280;62885;51.374;6.170;2022-12-18T01:28:40;102585.59;;;-4.51;82.79
74372;BME280;62885;51.374;6.170;2022-12-18T01:31:19;102584.53;;;-4.63;81.83
74372;BME280;62885;51.374;6.170;2022-12-18T01:33:48;102580.41;;;-4.47;82.41
74372;BME280;62885;51.374;6.170;2022-12-18T01:36:15;102580.47;;;-4.44;82.67
74372;BME280;62885;51.374;6.170;2022-12-18T01:38:41;102578.75;;;-4.43;82.27
74372;BME280;62885;51.374;6.170;2022-12-18T01:41:08;102576.06;;;-4.46;81.70
74372;BME280;62885;51.374;6.170;2022-12-18T01:44:00;102574.22;;;-4.53;82.28
74372;BME280;62885;51.374;6.170;2022-12-18T01:46:26;102576.00;;;-4.51;82.42
74372;BME280;62885;51.374;6.170;2022-12-18T01:48:58;102579.44;;;-4.55;82.25
74372;BME280;62885;51.374;6.170;2022-12-18T01:51:25;102573.09;;;-4.69;81.67
74372;BME280;62885;51.374;6.170;2022-12-18T01:53:51;102579.78;;;-4.86;82.25
74372;BME280;62885;51.374;6.170;2022-12-18T01:56:19;102572.09;;;-4.79;82.67
74372;BME280;62885;51.374;6.170;2022-12-18T01:58:59;102581.56;;;-4.84;83.76
74372;BME280;62885;51.374;6.170;2022-12-18T02:01:26;102575.66;;;-4.74;83.11
74372;BME280;62885;51.374;6.170;2022-12-18T02:03:52;102564.28;;;-4.76;83.13
74372;BME280;62885;51.374;6.170;2022-12-18T02:06:34;102562.50;;;-4.77;81.92
74372;BME280;62885;51.374;6.170;2022-12-18T02:15:16;102578.94;;;-4.85;83.45
74372;BME280;62885;51.374;6.170;2022-12-18T02:17:29;102572.78;;;-4.87;82.70
74372;BME280;62885;51.374;6.170;2022-12-18T02:27:47;102576.06;;;-4.99;82.33
74372;BME280;62885;51.374;6.170;2022-12-18T02:30:15;102580.31;;;-5.06;83.71
74372;BME280;62885;51.374;6.170;2022-12-18T02:32:44;102570.63;;;-5.11;83.36
74372;BME280;62885;51.374;6.170;2022-12-18T02:35:15;102570.22;;;-5.34;82.65
74372;BME280;62885;51.374;6.170;2022-12-18T02:37:43;102574.53;;;-5.34;84.44
74372;BME280;62885;51.374;6.170;2022-12-18T02:40:11;102569.25;;;-5.39;84.03
74372;BME280;62885;51.374;6.170;2022-12-18T02:42:38;102576.22;;;-5.38;83.21
74372;BME280;62885;51.374;6.170;2022-12-18T02:45:04;102560.72;;;-5.29;83.46
74372;BME280;62885;51.374;6.170;2022-12-18T02:47:32;102559.00;;;-5.28;84.29
74372;BME280;62885;51.374;6.170;2022-12-18T02:53:17;102559.44;;;-5.04;84.10
74372;BME280;62885;51.374;6.170;2022-12-18T02:58:47;102553.31;;;-5.06;82.63
74372;BME280;62885;51.374;6.170;2022-12-18T03:03:55;102551.47;;;-5.12;83.46
74372;BME280;62885;51.374;6.170;2022-12-18T03:08:56;102547.13;;;-5.11;82.45
74372;BME280;62885;51.374;6.170;2022-12-18T03:11:26;102544.53;;;-5.13;83.18
74372;BME280;62885;51.374;6.170;2022-12-18T03:14:13;102540.78;;;-5.27;83.78
74372;BME280;62885;51.374;6.170;2022-12-18T03:16:41;102533.97;;;-5.19;84.17
74372;BME280;62885;51.374;6.170;2022-12-18T03:19:11;102540.22;;;-5.09;84.17
74372;BME280;62885;51.374;6.170;2022-12-18T03:21:43;102537.59;;;-5.09;82.71
74372;BME280;62885;51.374;6.170;2022-12-18T03:24:11;102536.84;;;-5.04;82.64
74372;BME280;62885;51.374;6.170;2022-12-18T03:29:37;102535.28;;;-4.92;82.22
74372;BME280;62885;51.374;6.170;2022-12-18T03:32:09;102532.63;;;-4.94;82.95
74372;BME280;62885;51.374;6.170;2022-12-18T03:34:38;102541.25;;;-5.00;83.29
74372;BME280;62885;51.374;6.170;2022-12-18T03:37:06;102527.28;;;-5.03;83.37
74372;BME280;62885;51.374;6.170;2022-12-18T03:39:32;102537.78;;;-4.99;83.67
74372;BME280;62885;51.374;6.170;2022-12-18T03:42:15;102536.78;;;-5.05;83.69
74372;BME280;62885;51.374;6.170;2022-12-18T03:51:18;102518.03;;;-4.81;83.34
74372;BME280;62885;51.374;6.170;2022-12-18T03:56:00;102525.59;;;-4.98;82.85
74372;BME280;62885;51.374;6.170;2022-12-18T03:58:28;102527.63;;;-4.83;83.46
74372;BME280;62885;51.374;6.170;2022-12-18T04:00:56;102524.22;;;-4.78;82.34
74372;BME280;62885;51.374;6.170;2022-12-18T04:03:26;102515.56;;;-4.74;82.63
74372;BME280;62885;51.374;6.170;2022-12-18T04:05:54;102515.69;;;-4.66;81.80
74372;BME280;62885;51.374;6.170;2022-12-18T04:08:21;102514.72;;;-4.71;81.34
74372;BME280;62885;51.374;6.170;2022-12-18T04:10:47;102508.66;;;-4.69;82.22
74372;BME280;62885;51.374;6.170;2022-12-18T04:13:21;102510.44;;;-4.68;81.94
74372;BME280;62885;51.374;6.170;2022-12-18T04:15:47;102501.81;;;-4.62;81.41
74372;BME280;62885;51.374;6.170;2022-12-18T04:18:12;102508.75;;;-4.63;82.51
74372;BME280;62885;51.374;6.170;2022-12-18T04:20:38;102506.97;;;-4.65;81.56
74372;BME280;62885;51.374;6.170;2022-12-18T04:23:03;102507.84;;;-4.65;81.93
74372;BME280;62885;51.374;6.170;2022-12-18T04:25:28;102514.00;;;-4.63;82.71
74372;BME280;62885;51.374;6.170;2022-12-18T04:27:54;102501.75;;;-4.65;81.74
74372;BME280;62885;51.374;6.170;2022-12-18T04:30:19;102499.97;;;-4.68;82.35
74372;BME280;62885;51.374;6.170;2022-12-18T04:32:44;102492.97;;;-4.72;82.29
74372;BME280;62885;51.374;6.170;2022-12-18T04:35:10;102493.03;;;-4.66;82.82
74372;BME280;62885;51.374;6.170;2022-12-18T04:37:37;102485.28;;;-4.61;82.19
74372;BME280;62885;51.374;6.170;2022-12-18T04:40:02;102476.41;;;-4.72;82.31
74372;BME280;62885;51.374;6.170;2022-12-18T04:42:28;102475.41;;;-4.80;82.92
74372;BME280;62885;51.374;6.170;2022-12-18T04:44:53;102477.16;;;-4.79;82.55
74372;BME280;62885;51.374;6.170;2022-12-18T04:47:18;102477.19;;;-4.76;83.05
74372;BME280;62885;51.374;6.170;2022-12-18T04:49:44;102466.84;;;-4.70;82.63
74372;BME280;62885;51.374;6.170;2022-12-18T04:52:09;102465.94;;;-4.74;82.16
74372;BME280;62885;51.374;6.170;2022-12-18T04:54:34;102461.56;;;-4.75;82.25
74372;BME280;62885;51.374;6.170;2022-12-18T04:57:00;102462.47;;;-4.71;82.42
74372;BME280;62885;51.374;6.170;2022-12-18T04:59:25;102465.16;;;-4.65;82.37
74372;BME280;62885;51.374;6.170;2022-12-18T05:01:50;102461.72;;;-4.63;83.09
74372;BME280;62885;51.374;6.170;2022-12-18T05:04:16;102464.28;;;-4.67;82.22
74372;BME280;62885;51.374;6.170;2022-12-18T05:06:41;102461.63;;;-4.72;82.74
74372;BME280;62885;51.374;6.170;2022-12-18T05:09:06;102475.66;;;-4.64;82.31
74372;BME280;62885;51.374;6.170;2022-12-18T05:11:32;102472.09;;;-4.69;82.42
74372;BME280;62885;51.374;6.170;2022-12-18T05:13:57;102481.78;;;-4.62;82.79
74372;BME280;62885;51.374;6.170;2022-12-18T05:16:23;102495.84;;;-4.52;82.44
74372;BME280;62885;51.374;6.170;2022-12-18T05:18:48;102501.94;;;-4.54;82.34
74372;BME280;62885;51.374;6.170;2022-12-18T05:21:13;102499.34;;;-4.51;82.53
74372;BME280;62885;51.374;6.170;2022-12-18T05:23:39;102509.75;;;-4.56;82.37
74372;BME280;62885;51.374;6.170;2022-12-18T05:26:05;102508.78;;;-4.61;81.89
74372;BME280;62885;51.374;6.170;2022-12-18T05:28:32;102513.22;;;-4.56;81.77
74372;BME280;62885;51.374;6.170;2022-12-18T05:31:00;102514.06;;;-4.58;82.41
74372;BME280;62885;51.374;6.170;2022-12-18T05:33:27;102517.53;;;-4.58;81.89
74372;BME280;62885;51.374;6.170;2022-12-18T05:35:56;102526.28;;;-4.56;82.38
74372;BME280;62885;51.374;6.170;2022-12-18T05:38:23;102527.19;;;-4.53;82.58
74372;BME280;62885;51.374;6.170;2022-12-18T05:40:50;102516.72;;;-4.53;82.11
74372;BME280;62885;51.374;6.170;2022-12-18T05:43:15;102513.25;;;-4.52;82.14
74372;BME280;62885;51.374;6.170;2022-12-18T05:45:41;102509.84;;;-4.48;81.41
74372;BME280;62885;51.374;6.170;2022-12-18T05:48:08;102508.97;;;-4.47;81.79
74372;BME280;62885;51.374;6.170;2022-12-18T05:50:38;102516.84;;;-4.46;82.11
74372;BME280;62885;51.374;6.170;2022-12-18T05:53:04;102509.22;;;-4.32;82.10
74372;BME280;62885;51.374;6.170;2022-12-18T05:55:37;102505.66;;;-4.37;81.63
74372;BME280;62885;51.374;6.170;2022-12-18T05:58:04;102512.66;;;-4.35;81.65
74372;BME280;62885;51.374;6.170;2022-12-18T06:00:31;102517.00;;;-4.37;81.19
74372;BME280;62885;51.374;6.170;2022-12-18T06:02:57;102511.81;;;-4.31;80.76
74372;BME280;62885;51.374;6.170;2022-12-18T06:05:22;102504.81;;;-4.35;80.84
74372;BME280;62885;51.374;6.170;2022-12-18T06:07:48;102495.25;;;-4.33;81.48
74372;BME280;62885;51.374;6.170;2022-12-18T06:10:13;102496.13;;;-4.31;80.81
74372;BME280;62885;51.374;6.170;2022-12-18T06:12:38;102491.75;;;-4.33;80.91
74372;BME280;62885;51.374;6.170;2022-12-18T06:15:04;102483.13;;;-4.28;80.35
74372;BME280;62885;51.374;6.170;2022-12-18T06:17:31;102483.16;;;-4.25;80.85
74372;BME280;62885;51.374;6.170;2022-12-18T06:19:57;102487.50;;;-4.27;80.56
74372;BME280;62885;51.374;6.170;2022-12-18T06:22:22;102481.41;;;-4.24;80.52
74372;BME280;62885;51.374;6.170;2022-12-18T06:24:48;102479.69;;;-4.24;80.56
74372;BME280;62885;51.374;6.170;2022-12-18T06:27:13;102481.50;;;-4.20;80.85
74372;BME280;62885;51.374;6.170;2022-12-18T06:29:39;102479.72;;;-4.22;80.75
74372;BME280;62885;51.374;6.170;2022-12-18T06:32:04;102470.97;;;-4.23;80.65
74372;BME280;62885;51.374;6.170;2022-12-18T06:34:30;102476.28;;;-4.20;81.12
74372;BME280;62885;51.374;6.170;2022-12-18T06:36:55;102464.03;;;-4.19;81.05
74372;BME280;62885;51.374;6.170;2022-12-18T06:39:21;102475.38;;;-4.20;81.38
74372;BME280;62885;51.374;6.170;2022-12-18T06:41:46;102476.13;;;-4.29;81.11
74372;BME280;62885;51.374;6.170;2022-12-18T06:44:11;102470.91;;;-4.29;81.30
74372;BME280;62885;51.374;6.170;2022-12-18T06:46:37;102466.44;;;-4.36;80.45
74372;BME280;62885;51.374;6.170;2022-12-18T06:49:03;102457.72;;;-4.36;81.07
74372;BME280;62885;51.374;6.170;2022-12-18T06:51:28;102450.69;;;-4.42;80.81
74372;BME280;62885;51.374;6.170;2022-12-18T06:53:54;102448.06;;;-4.42;81.45
74372;BME280;62885;51.374;6.170;2022-12-18T06:56:19;102454.19;;;-4.43;80.94
74372;BME280;62885;51.374;6.170;2022-12-18T06:58:45;102456.84;;;-4.38;81.18
74372;BME280;62885;51.374;6.170;2022-12-18T07:01:12;102454.31;;;-4.32;81.09
74372;BME280;62885;51.374;6.170;2022-12-18T07:03:39;102456.94;;;-4.32;81.17
74372;BME280;62885;51.374;6.170;2022-12-18T07:06:04;102457.81;;;-4.32;81.21
74372;BME280;62885;51.374;6.170;2022-12-18T07:08:31;102456.00;;;-4.36;80.81
74372;BME280;62885;51.374;6.170;2022-12-18T07:10:57;102457.78;;;-4.33;80.99
74372;BME280;62885;51.374;6.170;2022-12-18T07:13:22;102455.28;;;-4.23;80.83
74372;BME280;62885;51.374;6.170;2022-12-18T07:15:48;102446.56;;;-4.23;80.26
74372;BME280;62885;51.374;6.170;2022-12-18T07:18:13;102453.53;;;-4.24;80.53
74372;BME280;62885;51.374;6.170;2022-12-18T07:20:39;102450.84;;;-4.31;80.62
74372;BME280;62885;51.374;6.170;2022-12-18T07:23:05;102451.75;;;-4.28;80.58
74372;BME280;62885;51.374;6.170;2022-12-18T07:25:34;102448.19;;;-4.33;81.50
74372;BME280;62885;51.374;6.170;2022-12-18T07:28:00;102451.69;;;-4.31;81.18
74372;BME280;62885;51.374;6.170;2022-12-18T07:30:25;102448.31;;;-4.24;80.87
74372;BME280;62885;51.374;6.170;2022-12-18T07:32:50;102445.63;;;-4.28;80.55
74372;BME280;62885;51.374;6.170;2022-12-18T07:35:16;102444.81;;;-4.24;80.56
74372;BME280;62885;51.374;6.170;2022-12-18T07:37:41;102436.22;;;-4.16;80.32
74372;BME280;62885;51.374;6.170;2022-12-18T07:40:08;102438.66;;;-4.29;80.03
74372;BME280;62885;51.374;6.170;2022-12-18T07:42:33;102441.28;;;-4.28;80.30
74372;BME280;62885;51.374;6.170;2022-12-18T07:45:00;102440.56;;;-4.16;80.79
74372;BME280;62885;51.374;6.170;2022-12-18T07:47:27;102438.97;;;-4.03;80.62
74372;BME280;62885;51.374;6.170;2022-12-18T07:49:52;102431.97;;;-4.06;79.79
74372;BME280;62885;51.374;6.170;2022-12-18T07:52:18;102420.63;;;-4.08;80.06
74372;BME280;62885;51.374;6.170;2022-12-18T07:54:43;102418.09;;;-4.02;79.97
74372;BME280;62885;51.374;6.170;2022-12-18T07:57:09;102419.66;;;-4.13;79.37
74372;BME280;62885;51.374;6.170;2022-12-18T07:59:35;102414.50;;;-4.10;79.39
74372;BME280;62885;51.374;6.170;2022-12-18T08:02:00;102399.69;;;-4.09;80.51
74372;BME280;62885;51.374;6.170;2022-12-18T08:04:26;102393.75;;;-3.93;79.76
74372;BME280;62885;51.374;6.170;2022-12-18T08:06:51;102391.03;;;-4.01;79.53
74372;BME280;62885;51.374;6.170;2022-12-18T08:09:17;102406.94;;;-3.81;79.56
74372;BME280;62885;51.374;6.170;2022-12-18T08:11:42;102399.00;;;-3.89;78.83
74372;BME280;62885;51.374;6.170;2022-12-18T08:14:11;102389.47;;;-3.85;79.13
74372;BME280;62885;51.374;6.170;2022-12-18T08:16:37;102400.81;;;-3.85;79.27
74372;BME280;62885;51.374;6.170;2022-12-18T08:19:02;102386.06;;;-3.77;79.42
74372;BME280;62885;51.374;6.170;2022-12-18T08:21:30;102388.69;;;-3.77;79.50
74372;BME280;62885;51.374;6.170;2022-12-18T08:23:58;102396.56;;;-3.72;78.81
74372;BME280;62885;51.374;6.170;2022-12-18T08:26:25;102393.09;;;-3.71;78.75
74372;BME280;62885;51.374;6.170;2022-12-18T08:28:51;102400.06;;;-3.73;78.98
74372;BME280;62885;51.374;6.170;2022-12-18T08:31:18;102405.50;;;-3.49;78.41
74372;BME280;62885;51.374;6.170;2022-12-18T08:33:44;102398.44;;;-3.59;78.01
74372;BME280;62885;51.374;6.170;2022-12-18T08:36:09;102399.41;;;-3.51;78.61
74372;BME280;62885;51.374;6.170;2022-12-18T08:38:35;102398.50;;;-3.51;77.90
74372;BME280;62885;51.374;6.170;2022-12-18T08:41:10;102400.31;;;-3.46;77.78
74372;BME280;62885;51.374;6.170;2022-12-18T08:43:39;102390.84;;;-3.28;78.09
74372;BME280;62885;51.374;6.170;2022-12-18T08:46:24;102384.72;;;-3.31;77.67
74372;BME280;62885;51.374;6.170;2022-12-18T08:48:51;102386.44;;;-3.31;77.24
74372;BME280;62885;51.374;6.170;2022-12-18T08:51:18;102393.47;;;-3.28;77.26
74372;BME280;62885;51.374;6.170;2022-12-18T08:53:44;102399.66;;;-3.17;76.75
74372;BME280;62885;51.374;6.170;2022-12-18T08:56:10;102407.44;;;-3.25;76.44
74372;BME280;62885;51.374;6.170;2022-12-18T08:58:35;102421.44;;;-3.20;76.53
74372;BME280;62885;51.374;6.170;2022-12-18T09:01:06;102425.91;;;-3.10;76.20
74372;BME280;62885;51.374;6.170;2022-12-18T09:03:32;102417.19;;;-3.10;76.74
74372;BME280;62885;51.374;6.170;2022-12-18T09:05:58;102402.34;;;-3.10;75.81
74372;BME280;62885;51.374;6.170;2022-12-18T09:08:25;102392.78;;;-3.03;75.94
74372;BME280;62885;51.374;6.170;2022-12-18T09:10:53;102385.78;;;-3.01;76.60
74372;BME280;62885;51.374;6.170;2022-12-18T09:13:19;102377.94;;;-3.04;76.48
74372;BME280;62885;51.374;6.170;2022-12-18T09:15:47;102370.13;;;-2.94;76.18
74372;BME280;62885;51.374;6.170;2022-12-18T09:18:15;102371.00;;;-2.93;75.69
74372;BME280;62885;51.374;6.170;2022-12-18T09:20:41;102378.91;;;-2.84;75.54
74372;BME280;62885;51.374;6.170;2022-12-18T09:23:07;102379.78;;;-2.85;75.18
74372;BME280;62885;51.374;6.170;2022-12-18T09:25:33;102376.28;;;-2.84;75.55
74372;BME280;62885;51.374;6.170;2022-12-18T09:28:04;102379.88;;;-2.70;75.18
74372;BME280;62885;51.374;6.170;2022-12-18T09:30:30;102366.00;;;-2.51;75.61
74372;BME280;62885;51.374;6.170;2022-12-18T09:32:58;102368.56;;;-2.58;74.82
74372;BME280;62885;51.374;6.170;2022-12-18T09:35:23;102386.94;;;-2.52;74.92
74372;BME280;62885;51.374;6.170;2022-12-18T09:37:49;102382.59;;;-2.44;74.47
74372;BME280;62885;51.374;6.170;2022-12-18T09:40:18;102384.34;;;-2.43;74.29
74372;BME280;62885;51.374;6.170;2022-12-18T09:43:04;102383.53;;;-2.36;74.94
74372;BME280;62885;51.374;6.170;2022-12-18T09:45:39;102372.19;;;-2.26;74.48
74372;BME280;62885;51.374;6.170;2022-12-18T09:48:51;102359.94;;;-2.27;74.52
74372;BME280;62885;51.374;6.170;2022-12-18T09:51:02;102354.66;;;-2.37;74.18
74372;BME280;62885;51.374;6.170;2022-12-18T09:53:32;102355.56;;;-2.34;74.30
74372;BME280;62885;51.374;6.170;2022-12-18T09:56:01;102362.56;;;-2.25;74.20
74372;BME280;62885;51.374;6.170;2022-12-18T09:58:36;102365.22;;;-2.13;74.79
74372;BME280;62885;51.374;6.170;2022-12-18T10:01:11;102369.63;;;-2.11;73.93
74372;BME280;62885;51.374;6.170;2022-12-18T10:03:37;102373.97;;;-2.10;73.42
74372;BME280;62885;51.374;6.170;2022-12-18T10:08:39;102375.75;;;-2.05;72.70
74372;BME280;62885;51.374;6.170;2022-12-18T10:11:25;102361.75;;;-2.01;73.92
74372;BME280;62885;51.374;6.170;2022-12-18T10:13:55;102355.66;;;-1.96;73.54
74372;BME280;62885;51.374;6.170;2022-12-18T10:19:25;102347.78;;;-1.88;73.33
74372;BME280;62885;51.374;6.170;2022-12-18T10:22:25;102342.53;;;-1.84;73.48
74372;BME280;62885;51.374;6.170;2022-12-18T10:25:05;102330.31;;;-1.77;73.57
74372;BME280;62885;51.374;6.170;2022-12-18T10:27:32;102328.56;;;-1.71;73.04
74372;BME280;62885;51.374;6.170;2022-12-18T10:29:58;102331.16;;;-1.68;72.73
74372;BME280;62885;51.374;6.170;2022-12-18T10:32:30;102330.31;;;-1.63;72.86
74372;BME280;62885;51.374;6.170;2022-12-18T10:34:57;102322.44;;;-1.65;72.03
74372;BME280;62885;51.374;6.170;2022-12-18T10:37:25;102315.44;;;-1.58;72.00
74372;BME280;62885;51.374;6.170;2022-12-18T10:40:11;102323.28;;;-1.42;71.82
74372;BME280;62885;51.374;6.170;2022-12-18T10:42:36;102324.16;;;-1.31;71.84
74372;BME280;62885;51.374;6.170;2022-12-18T10:45:12;102324.13;;;-1.28;71.86
74372;BME280;62885;51.374;6.170;2022-12-18T10:47:43;102321.53;;;-1.31;72.08
74372;BME280;62885;51.374;6.170;2022-12-18T10:50:18;102311.88;;;-1.33;71.02
74372;BME280;62885;51.374;6.170;2022-12-18T10:52:53;102302.22;;;-1.22;71.20
74372;BME280;62885;51.374;6.170;2022-12-18T10:55:19;102294.34;;;-1.13;70.68
74372;BME280;62885;51.374;6.170;2022-12-18T10:57:44;102303.13;;;-1.17;71.42
74372;BME280;62885;51.374;6.170;2022-12-18T11:00:30;102302.22;;;-1.10;70.92
74372;BME280;62885;51.374;6.170;2022-12-18T11:02:56;102300.41;;;-0.93;70.92
74372;BME280;62885;51.374;6.170;2022-12-18T11:05:30;102297.84;;;-1.08;70.25
74372;BME280;62885;51.374;6.170;2022-12-18T11:07:57;102289.97;;;-1.15;70.25
74372;BME280;62885;51.374;6.170;2022-12-18T11:10:36;102276.81;;;-1.15;70.28
74372;BME280;62885;51.374;6.170;2022-12-18T11:13:31;102267.19;;;-1.13;70.81
74372;BME280;62885;51.374;6.170;2022-12-18T11:15:57;102267.19;;;-1.07;70.26
74372;BME280;62885;51.374;6.170;2022-12-18T11:18:33;102247.84;;;-0.96;70.78
74372;BME280;62885;51.374;6.170;2022-12-18T11:21:06;102242.56;;;-0.91;69.88
74372;BME280;62885;51.374;6.170;2022-12-18T11:23:33;102239.06;;;-0.92;69.35
74372;BME280;62885;51.374;6.170;2022-12-18T11:26:01;102235.59;;;-0.94;69.94
74372;BME280;62885;51.374;6.170;2022-12-18T11:31:08;102235.59;;;-0.98;70.01
74372;BME280;62885;51.374;6.170;2022-12-18T11:33:36;102227.69;;;-0.91;70.68
74372;BME280;62885;51.374;6.170;2022-12-18T11:36:04;102225.94;;;-0.90;69.96
74372;BME280;62885;51.374;6.170;2022-12-18T11:38:35;102225.06;;;-0.89;69.14
74372;BME280;62885;51.374;6.170;2022-12-18T11:41:27;102225.00;;;-0.82;69.31
74372;BME280;62885;51.374;6.170;2022-12-18T11:44:29;102212.72;;;-0.76;69.75
74372;BME280;62885;51.374;6.170;2022-12-18T11:47:13;102216.22;;;-0.80;69.08
74372;BME280;62885;51.374;6.170;2022-12-18T11:49:41;102218.88;;;-0.77;68.90
74372;BME280;62885;51.374;6.170;2022-12-18T11:55:00;102224.06;;;-0.65;69.25
74372;BME280;62885;51.374;6.170;2022-12-18T11:57:42;102222.25;;;-0.57;69.30
74372;BME280;62885;51.374;6.170;2022-12-18T12:05:35;102220.47;;;-0.55;68.82
74372;BME280;62885;51.374;6.170;2022-12-18T12:21:58;102206.28;;;-0.31;68.37
74372;BME280;62885;51.374;6.170;2022-12-18T12:24:40;102188.81;;;-0.37;67.87
74372;BME280;62885;51.374;6.170;2022-12-18T12:40:18;102174.69;;;-0.27;67.78
74372;BME280;62885;51.374;6.170;2022-12-18T12:42:52;102180.88;;;-0.32;67.83
74372;BME280;62885;51.374;6.170;2022-12-18T12:48:35;102171.22;;;-0.30;68.28
74372;BME280;62885;51.374;6.170;2022-12-18T12:51:08;102179.03;;;-0.23;68.29
74372;BME280;62885;51.374;6.170;2022-12-18T12:53:37;102165.94;;;-0.30;67.96
74372;BME280;62885;51.374;6.170;2022-12-18T12:56:04;102164.16;;;-0.27;68.05
74372;BME280;62885;51.374;6.170;2022-12-18T12:58:45;102152.72;;;-0.23;67.24
74372;BME280;62885;51.374;6.170;2022-12-18T13:04:21;102149.19;;;-0.19;67.20
74372;BME280;62885;51.374;6.170;2022-12-18T13:15:28;102128.09;;;-0.14;67.42
74372;BME280;62885;51.374;6.170;2022-12-18T13:20:34;102121.00;;;-0.09;67.17
74372;BME280;62885;51.374;6.170;2022-12-18T13:23:00;102114.91;;;-0.13;66.90
74372;BME280;62885;51.374;6.170;2022-12-18T13:25:34;102118.38;;;-0.06;67.14
74372;BME280;62885;51.374;6.170;2022-12-18T13:28:15;102106.03;;;-0.04;66.83
74372;BME280;62885;51.374;6.170;2022-12-18T13:35:41;102109.47;;;0.06;67.37
74372;BME280;62885;51.374;6.170;2022-12-18T13:38:33;102100.78;;;-0.04;66.62
74372;BME280;62885;51.374;6.170;2022-12-18T13:41:24;102097.25;;;-0.03;67.33
74372;BME280;62885;51.374;6.170;2022-12-18T13:43:52;102093.75;;;-0.02;66.56
74372;BME280;62885;51.374;6.170;2022-12-18T13:46:29;102098.19;;;-0.07;66.66
74372;BME280;62885;51.374;6.170;2022-12-18T13:51:20;102087.66;;;-0.07;66.81
74372;BME280;62885;51.374;6.170;2022-12-18T13:53:51;102085.94;;;-0.10;67.10
74372;BME280;62885;51.374;6.170;2022-12-18T13:56:21;102090.38;;;-0.16;67.25
74372;BME280;62885;51.374;6.170;2022-12-18T14:01:32;102086.81;;;-0.11;66.80
74372;BME280;62885;51.374;6.170;2022-12-18T14:04:11;102087.66;;;-0.09;66.77
74372;BME280;62885;51.374;6.170;2022-12-18T14:06:38;102092.88;;;-0.04;67.66
74372;BME280;62885;51.374;6.170;2022-12-18T14:09:04;102076.25;;;-0.06;67.12
74372;BME280;62885;51.374;6.170;2022-12-18T14:11:29;102071.06;;;-0.12;66.97
74372;BME280;62885;51.374;6.170;2022-12-18T14:13:56;102068.34;;;-0.06;67.63
74372;BME280;62885;51.374;6.170;2022-12-18T14:16:21;102063.09;;;-0.09;67.59
74372;BME280;62885;51.374;6.170;2022-12-18T14:18:58;102062.28;;;-0.16;67.12
74372;BME280;62885;51.374;6.170;2022-12-18T14:21:28;102062.22;;;-0.10;67.38
74372;BME280;62885;51.374;6.170;2022-12-18T14:26:31;102061.31;;;-0.06;67.60
74372;BME280;62885;51.374;6.170;2022-12-18T14:29:00;102063.09;;;-0.08;67.02
74372;BME280;62885;51.374;6.170;2022-12-18T14:31:30;102066.66;;;-0.13;67.56
74372;BME280;62885;51.374;6.170;2022-12-18T14:33:56;102071.88;;;-0.07;67.57
74372;BME280;62885;51.374;6.170;2022-12-18T14:36:24;102062.28;;;-0.14;67.18
74372;BME280;62885;51.374;6.170;2022-12-18T14:38:51;102071.00;;;-0.09;66.98
74372;BME280;62885;51.374;6.170;2022-12-18T14:41:19;102066.69;;;-0.15;67.27
74372;BME280;62885;51.374;6.170;2022-12-18T14:43:47;102073.63;;;-0.08;67.42
74372;BME280;62885;51.374;6.170;2022-12-18T14:46:34;102064.84;;;-0.08;67.20
74372;BME280;62885;51.374;6.170;2022-12-18T14:49:04;102061.34;;;-0.09;66.88